Westboro, Wisconsin
Current Conditions -  °F | °C
As of 2:15 AM on Thursday 27 Nov 2014 (Local Time) from KMDZ Reporting Station
Light Snow Light Snow  
Wind Chill:   Ceiling: 5500
Heat Index: 12°   Visibility: 7mi
Dew Point:   Wind: 9mph
Humidity: 84%   Direction: 320°NW
Pressure: 30.26"   Gusts: NA
Location:  45.35°N, 90.3°W
Report Text: KMDZ 270815Z AUTO 32008KT 7SM -SN SCT038 BKN055 OVC100 M11/M13 A3026 RMK AO2 T11101132
Loading
Personal Weather Stations






























Interactive Weather Map New forecast layout! Learn more

10-Day Weather Forecast

Advertisements
Track Severe Weather on mobile